Time;durP1;ratioP1;P1;durP2;ratioP2;P2;SDS_P1;SDS_P2;PMS_P1;PMS_P2;Temp;Humidity;BMP_temperature;BMP_pressure;BME280_temperature;BME280_humidity;BME280_pressure;Samples;Min_cycle;Max_cycle;Signal;HPM_P1;HPM_P2
2023/08/13 00:01:50;;;;;;;12.90;2.78;;;16.20;99.90;;;;;;4954240;29;20039;-67
2023/08/13 00:04:15;;;;;;;11.45;2.20;;;16.20;99.90;;;;;;4936427;29;20123;-67
2023/08/13 00:06:41;;;;;;;9.80;1.58;;;16.20;99.90;;;;;;4953415;29;20035;-67
2023/08/13 00:09:06;;;;;;;10.68;2.45;;;16.20;99.90;;;;;;4952690;29;20043;-67
2023/08/13 00:11:32;;;;;;;6.45;1.80;;;16.20;99.90;;;;;;4933624;29;20467;-67
2023/08/13 00:13:58;;;;;;;8.27;1.83;;;16.20;99.90;;;;;;4953921;29;20052;-67
2023/08/13 00:16:24;;;;;;;8.77;1.88;;;16.30;99.90;;;;;;4954192;29;20081;-67
2023/08/13 00:18:49;;;;;;;6.70;1.90;;;16.30;99.90;;;;;;4936791;29;20043;-67
2023/08/13 00:21:15;;;;;;;11.85;2.30;;;16.30;99.90;;;;;;4953873;29;20183;-67
2023/08/13 00:23:41;;;;;;;9.70;2.28;;;16.40;99.90;;;;;;4936465;29;20383;-67
2023/08/13 00:26:06;;;;;;;11.68;2.22;;;16.40;99.90;;;;;;4951381;29;20035;-67
2023/08/13 00:28:32;;;;;;;6.10;1.63;;;16.40;99.90;;;;;;4953493;29;20067;-67
2023/08/13 00:30:57;;;;;;;11.27;3.03;;;16.50;99.90;;;;;;4954046;29;20035;-67
2023/08/13 00:33:23;;;;;;;8.48;1.90;;;16.40;99.90;;;;;;4953912;29;20475;-67
2023/08/13 00:35:50;;;;;;;7.53;2.17;;;16.40;99.90;;;;;;4953183;29;20114;-67
2023/08/13 00:41:56;;;;;;;10.95;1.63;;;16.50;99.90;;;;;;4953801;29;20062;-67
2023/08/13 00:44:22;;;;;;;11.93;2.40;;;16.40;99.90;;;;;;4953927;29;20119;-67
2023/08/13 00:46:48;;;;;;;8.10;1.90;;;16.40;99.90;;;;;;4920446;29;20043;-67
2023/08/13 00:49:15;;;;;;;9.32;2.40;;;16.30;99.90;;;;;;4968367;28;20047;-67
2023/08/13 00:51:41;;;;;;;8.80;2.67;;;16.30;99.90;;;;;;4971684;28;20058;-67
2023/08/13 00:54:08;;;;;;;11.43;2.42;;;16.30;99.90;;;;;;4971665;28;20043;-67
2023/08/13 00:56:35;;;;;;;11.50;2.65;;;16.30;99.90;;;;;;4939553;29;20410;-67
2023/08/13 00:59:00;;;;;;;9.43;2.20;;;16.30;99.90;;;;;;4957318;29;20040;-67
2023/08/13 01:01:26;;;;;;;8.02;2.42;;;16.30;99.90;;;;;;4956987;29;20042;-67
2023/08/13 01:03:52;;;;;;;8.45;2.20;;;16.30;99.90;;;;;;4971479;28;20098;-67
2023/08/13 01:06:36;;;;;;;10.90;3.00;;;16.20;99.90;;;;;;4971436;28;20486;-67
2023/08/13 01:09:03;;;;;;;14.43;2.42;;;16.20;99.90;;;;;;4939613;29;20058;-67
2023/08/13 01:11:50;;;;;;;15.90;3.25;;;16.10;99.90;;;;;;4956919;29;20389;-67
2023/08/13 01:14:38;;;;;;;8.57;2.83;;;16.10;99.90;;;;;;4971578;28;20110;-67
2023/08/13 01:17:06;;;;;;;14.60;2.88;;;16.10;99.90;;;;;;4956859;29;20036;-67
2023/08/13 01:19:32;;;;;;;11.40;2.63;;;16.10;99.90;;;;;;4956806;29;20049;-67
2023/08/13 01:21:58;;;;;;;9.40;2.58;;;16.10;99.90;;;;;;4939527;29;20047;-67
2023/08/13 01:24:23;;;;;;;8.90;2.20;;;16.10;99.90;;;;;;4956389;29;20090;-67
2023/08/13 01:27:15;;;;;;;10.57;2.83;;;16.10;99.90;;;;;;4938924;29;20485;-67
2023/08/13 01:29:52;;;;;;;12.52;3.80;;;16.10;99.90;;;;;;4956639;28;20043;-67
2023/08/13 01:32:21;;;;;;;11.27;3.58;;;16.10;99.90;;;;;;4956831;28;20043;-67
2023/08/13 01:34:47;;;;;;;14.18;3.67;;;16.10;99.90;;;;;;4939275;29;20554;-67
2023/08/13 01:37:13;;;;;;;13.45;3.33;;;16.10;99.90;;;;;;4970622;28;20047;-67
2023/08/13 01:39:39;;;;;;;10.02;2.85;;;16.10;99.90;;;;;;4971048;28;20051;-67
2023/08/13 01:42:06;;;;;;;15.20;2.47;;;16.10;99.90;;;;;;4956835;29;20414;-67
2023/08/13 01:44:32;;;;;;;17.25;3.53;;;16.10;99.90;;;;;;4938649;29;20118;-67
2023/08/13 01:46:57;;;;;;;15.52;2.63;;;16.10;99.90;;;;;;4956144;29;20131;-67
2023/08/13 01:49:23;;;;;;;11.18;2.40;;;16.10;99.90;;;;;;4939001;29;20064;-67
2023/08/13 01:51:49;;;;;;;13.07;3.03;;;16.10;99.90;;;;;;4939175;29;20094;-67
2023/08/13 01:54:14;;;;;;;14.98;2.92;;;16.10;99.90;;;;;;4956215;29;20066;-67
2023/08/13 01:56:40;;;;;;;10.35;2.30;;;16.10;99.90;;;;;;4955486;29;20043;-67
2023/08/13 01:59:05;;;;;;;7.75;1.63;;;16.10;99.90;;;;;;4938732;29;20047;-67
2023/08/13 02:01:31;;;;;;;14.10;2.78;;;16.10;99.90;;;;;;4937885;29;20058;-67
2023/08/13 02:03:56;;;;;;;12.15;2.72;;;16.10;99.90;;;;;;4955560;29;20035;-67
2023/08/13 02:06:22;;;;;;;12.25;2.55;;;16.00;99.90;;;;;;4955436;29;20146;-67
2023/08/13 02:08:48;;;;;;;11.43;2.60;;;16.00;99.90;;;;;;4937493;29;20051;-67
2023/08/13 02:11:13;;;;;;;12.20;3.10;;;16.00;99.90;;;;;;4938632;29;20081;-67
2023/08/13 02:13:39;;;;;;;10.15;2.67;;;16.00;99.90;;;;;;4955804;29;20075;-67
2023/08/13 02:16:05;;;;;;;8.05;2.20;;;16.00;99.90;;;;;;4955678;29;20455;-67
2023/08/13 02:18:31;;;;;;;16.13;3.03;;;15.90;99.90;;;;;;4938595;29;20450;-67
2023/08/13 02:24:37;;;;;;;13.13;2.60;;;15.90;99.90;;;;;;4955451;29;20438;-67
2023/08/13 02:27:04;;;;;;;10.13;2.97;;;16.00;99.90;;;;;;4955504;29;20035;-67
2023/08/13 02:29:29;;;;;;;12.07;3.20;;;15.90;99.90;;;;;;4955743;29;20066;-67
2023/08/13 02:31:55;;;;;;;13.75;3.15;;;15.90;99.90;;;;;;4955877;29;20039;-67
2023/08/13 02:34:22;;;;;;;10.70;3.05;;;15.90;99.90;;;;;;4955375;29;20043;-67
2023/08/13 02:36:48;;;;;;;12.93;2.95;;;15.90;99.90;;;;;;4955090;29;20048;-67
2023/08/13 02:39:13;;;;;;;14.00;3.65;;;15.90;99.90;;;;;;4955293;29;20040;-67
2023/08/13 02:41:39;;;;;;;13.25;2.83;;;15.90;99.90;;;;;;4955694;29;20092;-67
2023/08/13 02:44:05;;;;;;;12.45;3.08;;;15.90;99.90;;;;;;4938045;29;20050;-67
2023/08/13 02:46:30;;;;;;;12.95;2.92;;;15.90;99.90;;;;;;4937930;29;20542;-67
2023/08/13 02:48:56;;;;;;;13.48;3.65;;;15.90;99.90;;;;;;4954939;29;20470;-67
2023/08/13 02:51:22;;;;;;;16.60;2.95;;;15.90;99.90;;;;;;4954833;29;20035;-67
2023/08/13 02:53:48;;;;;;;9.55;2.90;;;15.80;99.90;;;;;;4954793;29;20549;-67
2023/08/13 02:56:13;;;;;;;8.77;2.60;;;15.80;99.90;;;;;;4955000;29;20118;-67
2023/08/13 02:58:39;;;;;;;11.68;2.75;;;15.80;99.90;;;;;;4921533;29;20039;-67
2023/08/13 03:04:45;;;;;;;17.13;3.60;;;15.70;99.90;;;;;;4954553;29;20097;-67
2023/08/13 03:07:11;;;;;;;13.18;2.78;;;15.70;99.90;;;;;;4937240;29;20054;-67
2023/08/13 03:09:36;;;;;;;13.15;3.08;;;15.70;99.90;;;;;;4954461;29;20051;-67
2023/08/13 03:12:02;;;;;;;8.57;2.50;;;15.70;99.90;;;;;;4937336;29;20047;-67
2023/08/13 03:14:28;;;;;;;15.13;4.35;;;15.70;99.90;;;;;;4954362;28;20039;-67
2023/08/13 03:16:53;;;;;;;14.18;4.50;;;15.70;99.90;;;;;;4936895;29;20039;-67
2023/08/13 03:19:19;;;;;;;12.82;4.00;;;15.60;99.90;;;;;;4937394;29;20079;-67
2023/08/13 03:21:44;;;;;;;15.63;4.03;;;15.60;99.90;;;;;;4954646;29;20092;-67
2023/08/13 03:24:10;;;;;;;11.48;3.30;;;15.60;99.90;;;;;;4954316;29;20031;-67
2023/08/13 03:26:35;;;;;;;14.48;2.90;;;15.60;99.90;;;;;;4954089;29;20533;-67
2023/08/13 03:29:01;;;;;;;9.50;2.75;;;15.60;99.90;;;;;;4936756;29;20118;-67
2023/08/13 03:31:26;;;;;;;13.82;3.95;;;15.60;99.90;;;;;;4953923;29;20042;-67
2023/08/13 03:33:52;;;;;;;11.95;2.60;;;15.60;99.90;;;;;;4953709;29;20110;-67
2023/08/13 03:36:17;;;;;;;15.90;3.47;;;15.60;99.90;;;;;;4954294;29;20097;-67
2023/08/13 03:38:43;;;;;;;12.55;3.00;;;15.60;99.90;;;;;;4954136;29;20043;-67
2023/08/13 03:41:09;;;;;;;13.25;3.30;;;15.50;99.90;;;;;;4954391;29;20553;-67
2023/08/13 03:43:35;;;;;;;19.38;3.50;;;15.50;99.90;;;;;;4968870;28;20500;-67
2023/08/13 03:46:02;;;;;;;13.25;3.47;;;15.50;99.90;;;;;;4953962;29;20218;-67
2023/08/13 03:48:27;;;;;;;11.85;3.05;;;15.50;99.90;;;;;;4936469;29;20043;-67
2023/08/13 03:50:53;;;;;;;11.68;3.17;;;15.50;99.90;;;;;;4954148;29;20050;-67
2023/08/13 03:53:22;;;;;;;16.65;3.28;;;15.50;99.90;;;;;;4953693;29;20039;-67
2023/08/13 03:59:28;;;;;;;9.25;2.65;;;15.50;99.90;;;;;;4954073;29;20106;-67
2023/08/13 04:01:54;;;;;;;10.98;2.78;;;15.40;99.90;;;;;;4954035;29;20490;-67
2023/08/13 04:04:19;;;;;;;12.93;3.38;;;15.40;99.90;;;;;;4953514;29;20086;-67
2023/08/13 04:06:45;;;;;;;12.57;3.92;;;15.40;99.90;;;;;;4953767;29;20043;-67
2023/08/13 04:09:11;;;;;;;11.88;2.83;;;15.50;99.90;;;;;;4953480;29;20554;-67
2023/08/13 04:15:17;;;;;;;12.35;3.53;;;15.50;99.90;;;;;;4953673;29;20054;-67
2023/08/13 04:17:43;;;;;;;13.77;3.22;;;15.60;99.90;;;;;;4953845;29;20475;-67
2023/08/13 04:20:10;;;;;;;11.35;3.25;;;15.60;99.90;;;;;;4937271;29;20398;-67
2023/08/13 04:22:36;;;;;;;15.25;3.42;;;15.60;99.90;;;;;;4953926;29;20093;-67
2023/08/13 04:25:01;;;;;;;13.38;3.05;;;15.70;99.90;;;;;;4954930;28;20035;-67
2023/08/13 04:27:27;;;;;;;11.55;2.45;;;15.70;99.90;;;;;;4957222;29;20054;-67
2023/08/13 04:29:52;;;;;;;14.30;3.17;;;15.70;99.90;;;;;;4957319;29;20047;-67
2023/08/13 04:32:18;;;;;;;12.95;3.05;;;15.70;99.90;;;;;;4957451;29;20043;-67
2023/08/13 04:34:43;;;;;;;10.02;2.70;;;15.80;99.90;;;;;;4940116;29;20121;-67
2023/08/13 04:37:09;;;;;;;13.32;3.47;;;15.80;99.90;;;;;;4940027;29;20490;-67
2023/08/13 04:39:35;;;;;;;11.27;3.63;;;15.90;99.90;;;;;;4924224;29;20406;-67
2023/08/13 04:42:00;;;;;;;11.25;3.03;;;15.90;99.90;;;;;;4957408;29;20459;-67
2023/08/13 04:44:26;;;;;;;7.18;2.40;;;15.90;99.90;;;;;;4957435;29;20031;-67
2023/08/13 04:46:52;;;;;;;11.55;2.90;;;15.90;99.90;;;;;;4956834;29;20043;-67
2023/08/13 04:49:18;;;;;;;13.65;3.47;;;16.00;99.90;;;;;;4972330;28;20047;-67
2023/08/13 04:51:43;;;;;;;13.40;3.30;;;16.00;99.90;;;;;;4939880;29;20042;-67
2023/08/13 04:54:09;;;;;;;15.10;3.20;;;16.00;99.90;;;;;;4939690;29;20047;-68
2023/08/13 04:56:34;;;;;;;14.65;2.95;;;16.00;99.90;;;;;;4939496;29;20410;-67
2023/08/13 04:59:01;;;;;;;9.05;2.63;;;16.00;99.90;;;;;;4939567;29;20093;-67
2023/08/13 05:01:26;;;;;;;9.68;2.47;;;16.00;99.90;;;;;;4956523;29;20490;-67
2023/08/13 05:03:52;;;;;;;14.25;2.53;;;16.10;99.90;;;;;;4957135;29;20031;-67
2023/08/13 05:06:17;;;;;;;8.50;2.58;;;16.10;99.90;;;;;;4939541;29;20047;-67
2023/08/13 05:08:43;;;;;;;13.40;3.22;;;16.10;99.90;;;;;;4956265;29;20117;-67
2023/08/13 05:11:09;;;;;;;14.90;3.63;;;16.10;99.90;;;;;;4956671;29;20054;-67
2023/08/13 05:13:34;;;;;;;9.38;3.35;;;16.20;99.90;;;;;;4957052;29;20050;-67
2023/08/13 05:16:00;;;;;;;10.65;3.05;;;16.10;99.90;;;;;;4939468;29;20129;-67
2023/08/13 05:18:25;;;;;;;15.43;3.78;;;16.10;99.90;;;;;;4956613;29;20102;-67
2023/08/13 05:20:51;;;;;;;14.60;2.92;;;16.10;99.90;;;;;;4939084;29;20078;-67
2023/08/13 05:23:17;;;;;;;10.70;2.70;;;16.10;99.90;;;;;;4956779;29;20109;-67
2023/08/13 05:25:43;;;;;;;7.85;3.20;;;16.10;99.90;;;;;;4939048;29;20039;-67
2023/08/13 05:28:08;;;;;;;9.43;2.83;;;16.20;99.90;;;;;;4956320;29;20094;-67
2023/08/13 05:30:37;;;;;;;16.27;3.05;;;16.20;99.90;;;;;;4970963;28;20136;-67
2023/08/13 05:33:03;;;;;;;12.02;2.58;;;16.30;99.90;;;;;;4956350;29;20081;-67
2023/08/13 05:35:29;;;;;;;10.48;2.80;;;16.40;99.90;;;;;;4955186;29;20043;-67
2023/08/13 05:37:54;;;;;;;8.65;2.58;;;16.50;99.90;;;;;;4936845;29;20043;-67
2023/08/13 05:44:01;;;;;;;9.85;2.63;;;17.40;99.90;;;;;;4955687;29;20121;-67
2023/08/13 05:46:26;;;;;;;12.77;2.85;;;17.50;99.90;;;;;;4955745;29;20086;-67
2023/08/13 05:48:52;;;;;;;9.45;2.55;;;17.40;99.90;;;;;;4938217;29;20043;-67
2023/08/13 05:51:17;;;;;;;9.80;2.58;;;17.30;99.90;;;;;;4955225;29;20043;-67
2023/08/13 05:57:24;;;;;;;12.55;3.42;;;17.20;99.90;;;;;;4954799;29;20046;-67
2023/08/13 05:59:49;;;;;;;7.15;2.47;;;17.10;99.90;;;;;;4955422;29;20039;-69
2023/08/13 06:02:15;;;;;;;6.22;2.20;;;17.10;99.90;;;;;;4936256;28;20050;-70
2023/08/13 06:04:40;;;;;;;9.10;2.97;;;17.60;99.90;;;;;;4954015;28;20074;-68
2023/08/13 06:07:06;;;;;;;10.73;3.67;;;18.30;99.90;;;;;;4931970;29;20397;-68
2023/08/13 06:09:32;;;;;;;12.20;2.67;;;19.00;99.90;;;;;;4945940;28;20031;-68
2023/08/13 06:11:57;;;;;;;11.00;2.75;;;19.60;99.90;;;;;;4928084;29;20050;-68
2023/08/13 06:14:23;;;;;;;11.70;3.88;;;20.00;99.90;;;;;;4926691;29;20057;-68
2023/08/13 06:16:49;;;;;;;9.88;2.45;;;20.30;99.90;;;;;;4959449;28;20054;-68
2023/08/13 06:19:14;;;;;;;12.02;2.45;;;20.50;99.90;;;;;;4926309;28;20053;-68
2023/08/13 06:21:40;;;;;;;13.10;3.08;;;20.60;99.90;;;;;;4944082;28;20031;-69
2023/08/13 06:24:06;;;;;;;9.20;2.80;;;20.90;99.90;;;;;;4926884;28;20047;-69
2023/08/13 06:26:32;;;;;;;8.95;3.63;;;21.10;99.90;;;;;;4929112;28;20115;-69
2023/08/13 06:28:58;;;;;;;13.82;3.50;;;21.40;99.90;;;;;;4953225;28;20097;-71
2023/08/13 06:31:23;;;;;;;9.18;2.30;;;21.60;99.90;;;;;;4954485;28;20040;-70
2023/08/13 06:33:49;;;;;;;9.15;2.08;;;21.80;99.90;;;;;;4927148;28;20043;-70
2023/08/13 06:36:14;;;;;;;9.85;2.25;;;22.10;99.90;;;;;;4935507;29;20401;-70
2023/08/13 06:38:40;;;;;;;9.48;2.40;;;22.20;99.90;;;;;;4932452;28;20138;-70
2023/08/13 06:41:06;;;;;;;9.43;2.85;;;22.40;99.90;;;;;;4927454;28;20043;-70
2023/08/13 06:43:32;;;;;;;7.75;2.38;;;22.50;99.90;;;;;;4948600;28;20066;-70
2023/08/13 06:45:59;;;;;;;7.25;2.95;;;22.70;99.90;;;;;;4933658;28;20130;-70
2023/08/13 06:48:26;;;;;;;10.10;3.30;;;22.60;99.90;;;;;;4951990;28;20035;-70
2023/08/13 06:50:55;;;;;;;7.63;2.15;;;22.30;99.90;;;;;;4948579;28;20097;-70
2023/08/13 06:53:21;;;;;;;7.65;2.47;;;22.20;99.90;;;;;;4932747;28;20540;-69
2023/08/13 06:55:47;;;;;;;9.88;2.42;;;22.00;99.90;;;;;;4934435;28;20070;-70
2023/08/13 06:58:12;;;;;;;9.23;2.67;;;21.70;99.90;;;;;;4965446;28;20043;-70
2023/08/13 07:00:39;;;;;;;10.95;3.08;;;21.50;99.90;;;;;;4948235;28;20038;-70
2023/08/13 07:03:06;;;;;;;7.40;2.03;;;21.40;99.90;;;;;;4946743;28;20094;-70
2023/08/13 07:05:31;;;;;;;8.90;2.10;;;21.60;99.90;;;;;;4957346;28;20039;-70
2023/08/13 07:07:57;;;;;;;10.45;2.72;;;21.60;99.90;;;;;;4943555;28;20035;-70
2023/08/13 07:10:22;;;;;;;8.00;2.58;;;21.50;99.90;;;;;;4929787;28;20093;-70
2023/08/13 07:12:48;;;;;;;9.27;2.70;;;21.30;99.90;;;;;;4930524;28;20051;-70
2023/08/13 07:15:13;;;;;;;7.85;2.17;;;21.30;99.90;;;;;;4946200;28;20039;-70
2023/08/13 07:17:39;;;;;;;8.00;2.28;;;21.50;99.90;;;;;;4934704;28;20035;-70
2023/08/13 07:20:09;;;;;;;11.63;3.08;;;21.40;99.90;;;;;;4944960;28;20047;-70
2023/08/13 07:22:38;;;;;;;11.13;2.17;;;21.50;99.90;;;;;;4946000;28;20106;-70
2023/08/13 07:25:05;;;;;;;11.63;3.28;;;21.60;99.90;;;;;;4946087;29;20039;-70
2023/08/13 07:27:31;;;;;;;11.73;2.42;;;21.70;99.90;;;;;;4949024;28;20073;-70
2023/08/13 07:29:56;;;;;;;8.48;2.60;;;22.00;99.90;;;;;;4932747;29;20047;-70
2023/08/13 07:32:22;;;;;;;7.70;2.00;;;22.20;99.90;;;;;;4930600;28;20174;-70
2023/08/13 07:34:47;;;;;;;10.73;2.95;;;22.30;99.90;;;;;;4944279;28;20410;-70
2023/08/13 07:37:13;;;;;;;7.22;2.10;;;22.30;99.90;;;;;;4928813;29;20492;-70
2023/08/13 07:39:40;;;;;;;8.50;2.00;;;22.10;99.90;;;;;;4928147;28;20050;-70
2023/08/13 07:42:08;;;;;;;9.77;2.45;;;22.10;99.90;;;;;;4961222;28;20051;-70
2023/08/13 07:44:34;;;;;;;5.32;1.45;;;21.90;99.90;;;;;;4944390;28;20043;-70
2023/08/13 07:47:00;;;;;;;9.68;2.42;;;21.90;99.90;;;;;;4961797;28;20043;-70
2023/08/13 07:49:26;;;;;;;8.60;2.10;;;21.70;99.90;;;;;;4960107;28;20047;-70
2023/08/13 07:51:52;;;;;;;7.43;1.38;;;21.70;99.90;;;;;;4962920;28;20039;-70
2023/08/13 07:54:19;;;;;;;9.75;1.90;;;21.80;99.90;;;;;;4947706;28;20474;-70
2023/08/13 07:56:44;;;;;;;8.05;1.98;;;22.00;99.90;;;;;;4945262;29;20436;-71
2023/08/13 07:59:10;;;;;;;7.30;2.13;;;22.20;99.90;;;;;;4928029;29;20047;-70
2023/08/13 08:01:36;;;;;;;7.28;2.33;;;22.30;99.90;;;;;;4945462;28;20035;-70
2023/08/13 08:04:03;;;;;;;5.68;1.38;;;22.40;99.90;;;;;;4924975;28;20045;-70
2023/08/13 08:06:29;;;;;;;10.07;2.53;;;22.50;99.90;;;;;;4945264;28;20570;-70
2023/08/13 08:08:54;;;;;;;9.05;1.42;;;22.70;99.90;;;;;;4945787;28;20046;-70
2023/08/13 08:11:20;;;;;;;8.20;2.00;;;22.90;99.90;;;;;;4929797;29;20047;-70
2023/08/13 08:13:45;;;;;;;11.73;2.22;;;23.00;99.90;;;;;;4926876;29;20086;-70
2023/08/13 08:16:11;;;;;;;5.68;1.35;;;23.10;99.90;;;;;;4924131;29;20043;-70
2023/08/13 08:18:36;;;;;;;9.85;2.55;;;23.10;99.90;;;;;;4924921;29;20119;-70
2023/08/13 08:21:02;;;;;;;6.97;1.80;;;23.10;99.90;;;;;;4930827;29;20035;-70
2023/08/13 08:23:28;;;;;;;6.72;2.00;;;23.10;99.90;;;;;;4942569;29;20135;-70
2023/08/13 08:25:53;;;;;;;7.28;2.22;;;23.00;99.90;;;;;;4946452;28;20045;-70
2023/08/13 08:28:19;;;;;;;9.07;1.88;;;22.80;99.90;;;;;;4924381;28;20043;-70
2023/08/13 08:30:44;;;;;;;7.57;1.85;;;22.90;99.90;;;;;;4923786;29;20505;-70
2023/08/13 08:33:10;;;;;;;7.90;2.45;;;22.70;99.90;;;;;;4944181;29;20058;-70
2023/08/13 08:35:36;;;;;;;6.13;1.70;;;22.80;99.90;;;;;;4945296;28;20046;-70
2023/08/13 08:38:02;;;;;;;4.13;1.83;;;22.70;99.90;;;;;;4925101;29;20035;-70
2023/08/13 08:40:28;;;;;;;7.85;2.03;;;22.90;99.90;;;;;;4925341;29;20048;-70
2023/08/13 08:42:53;;;;;;;6.32;1.48;;;23.10;99.90;;;;;;4944243;28;20039;-70
2023/08/13 08:45:21;;;;;;;10.75;1.80;;;23.30;99.90;;;;;;4927386;29;20063;-70
2023/08/13 08:47:49;;;;;;;11.18;1.92;;;23.70;99.90;;;;;;4943526;28;20051;-70
2023/08/13 08:50:15;;;;;;;5.20;1.35;;;23.60;99.90;;;;;;4927769;29;20140;-70
2023/08/13 08:52:40;;;;;;;6.30;1.63;;;23.60;99.90;;;;;;4944080;28;20035;-70
2023/08/13 08:55:09;;;;;;;7.47;2.25;;;23.60;99.90;;;;;;4939303;28;20054;-70
2023/08/13 08:57:34;;;;;;;7.22;1.92;;;23.50;99.90;;;;;;4946495;28;20043;-70
2023/08/13 09:00:00;;;;;;;6.38;1.42;;;23.40;99.90;;;;;;4930002;28;20791;-70
2023/08/13 09:02:26;;;;;;;5.97;1.60;;;23.40;99.90;;;;;;4927735;29;20118;-70
2023/08/13 09:04:52;;;;;;;6.78;1.85;;;23.40;99.90;;;;;;4943850;28;20063;-70
2023/08/13 09:07:17;;;;;;;8.43;1.77;;;23.50;99.90;;;;;;4941752;28;20035;-70
2023/08/13 09:09:47;;;;;;;9.73;2.20;;;23.60;99.90;;;;;;4925705;28;20050;-70
2023/08/13 09:12:14;;;;;;;8.18;1.73;;;23.60;99.90;;;;;;4946135;28;20053;-70
2023/08/13 09:14:40;;;;;;;8.90;1.27;;;23.60;99.90;;;;;;4961499;28;20413;-70
2023/08/13 09:17:09;;;;;;;9.60;2.03;;;23.90;99.90;;;;;;4946408;28;20035;-70
2023/08/13 09:19:35;;;;;;;5.30;1.30;;;24.30;99.90;;;;;;4948648;28;20068;-70
2023/08/13 09:22:01;;;;;;;6.55;1.77;;;24.40;99.90;;;;;;4950311;28;20043;-70
2023/08/13 09:24:35;;;;;;;4.28;1.17;;;24.70;99.90;;;;;;4934298;28;20047;-70
2023/08/13 09:27:02;;;;;;;8.02;2.15;;;24.60;99.90;;;;;;4928755;28;20039;-70
2023/08/13 09:29:32;;;;;;;8.48;1.77;;;24.70;99.90;;;;;;4926340;29;20061;-70
2023/08/13 09:31:59;;;;;;;5.97;1.20;;;24.80;99.90;;;;;;4930158;29;20039;-70
2023/08/13 09:34:26;;;;;;;5.28;1.52;;;24.90;99.90;;;;;;4961068;28;20047;-70
2023/08/13 09:36:53;;;;;;;7.78;2.13;;;24.90;99.90;;;;;;4962050;28;20362;-70
2023/08/13 09:39:20;;;;;;;5.53;1.38;;;24.90;99.90;;;;;;4945538;28;20047;-70
2023/08/13 09:41:49;;;;;;;5.68;1.63;;;24.80;99.90;;;;;;4928327;29;20051;-70
2023/08/13 09:44:17;;;;;;;6.65;1.55;;;25.00;99.90;;;;;;4962858;28;20616;-70
2023/08/13 09:46:48;;;;;;;6.18;1.02;;;25.00;99.90;;;;;;4930548;28;20078;-70
2023/08/13 09:56:44;;;;;;;3.80;1.30;;;25.00;99.90;;;;;;4950068;29;20126;-70
2023/08/13 09:59:11;;;;;;;5.00;1.23;;;25.10;99.90;;;;;;4929730;28;20050;-70
2023/08/13 10:01:37;;;;;;;4.55;1.05;;;25.20;99.90;;;;;;4949250;28;20050;-70
2023/08/13 10:04:04;;;;;;;2.63;0.73;;;25.20;99.90;;;;;;4948449;28;20118;-70
2023/08/13 10:06:29;;;;;;;5.28;1.50;;;25.30;99.90;;;;;;4948129;29;20170;-70
2023/08/13 10:08:55;;;;;;;6.10;1.30;;;25.00;99.90;;;;;;4930323;28;20050;-70
2023/08/13 10:11:22;;;;;;;3.80;1.25;;;25.00;99.90;;;;;;4916930;29;20478;-70
2023/08/13 10:13:48;;;;;;;4.05;1.00;;;25.00;99.90;;;;;;4942928;28;20953;-70
2023/08/13 10:16:14;;;;;;;3.70;0.70;;;24.90;99.90;;;;;;4947448;28;20046;-70
2023/08/13 10:18:45;;;;;;;4.72;1.35;;;24.70;99.90;;;;;;4945331;28;20615;-70
2023/08/13 10:21:14;;;;;;;5.22;1.05;;;24.50;99.90;;;;;;4946122;28;20067;-70
2023/08/13 10:23:40;;;;;;;6.13;1.13;;;24.30;99.90;;;;;;4947896;28;20050;-70
2023/08/13 10:26:07;;;;;;;3.78;0.70;;;24.50;99.90;;;;;;4961305;28;20039;-70
2023/08/13 10:28:33;;;;;;;6.35;0.90;;;24.50;99.90;;;;;;4947909;28;20054;-70
2023/08/13 10:31:24;;;;;;;4.18;0.95;;;24.40;99.90;;;;;;4944311;28;20047;-70
2023/08/13 10:34:11;;;;;;;2.95;0.82;;;24.20;99.90;;;;;;4959417;28;20051;-70
2023/08/13 10:36:49;;;;;;;3.65;0.68;;;24.10;99.90;;;;;;4925516;29;20055;-70
2023/08/13 10:39:37;;;;;;;5.85;1.55;;;24.00;99.90;;;;;;4959248;28;20051;-70
2023/08/13 10:42:34;;;;;;;4.22;0.70;;;23.90;99.90;;;;;;4959376;28;20097;-70
2023/08/13 10:45:07;;;;;;;7.25;0.70;;;24.10;99.90;;;;;;4946523;28;20233;-70
2023/08/13 10:48:00;;;;;;;3.58;0.55;;;24.20;99.90;;;;;;4942954;28;20397;-70
2023/08/13 10:50:28;;;;;;;2.35;1.02;;;24.30;99.90;;;;;;4945346;28;20039;-70
2023/08/13 10:53:19;;;;;;;6.28;1.27;;;24.40;99.90;;;;;;4927343;28;20046;-70
2023/08/13 10:55:49;;;;;;;1.80;0.70;;;24.20;99.90;;;;;;4927654;28;20184;-70
2023/08/13 10:58:24;;;;;;;2.63;0.60;;;24.10;99.90;;;;;;4946740;29;20031;-70
2023/08/13 11:00:50;;;;;;;3.45;0.60;;;24.10;99.90;;;;;;4944720;28;20039;-70
2023/08/13 11:03:20;;;;;;;3.67;0.80;;;24.10;99.90;;;;;;4945140;28;20036;-70
2023/08/13 11:05:48;;;;;;;5.32;1.20;;;24.00;99.90;;;;;;4944990;28;20036;-70
2023/08/13 11:08:24;;;;;;;1.55;0.70;;;24.00;99.90;;;;;;4942242;28;20129;-69
2023/08/13 11:10:52;;;;;;;3.22;0.70;;;23.90;99.90;;;;;;4929167;28;20141;-70
2023/08/13 11:13:19;;;;;;;2.97;1.08;;;23.80;99.90;;;;;;4927243;29;20054;-70
2023/08/13 11:15:50;;;;;;;2.60;0.60;;;23.60;99.90;;;;;;4946618;28;20397;-69
2023/08/13 11:18:16;;;;;;;3.40;0.90;;;23.60;99.90;;;;;;4944871;28;20088;-70
2023/08/13 11:20:44;;;;;;;2.53;0.52;;;23.60;99.90;;;;;;4945786;28;20043;-70
2023/08/13 11:23:17;;;;;;;4.47;0.90;;;23.50;99.90;;;;;;4959812;28;20039;-69
2023/08/13 11:25:48;;;;;;;5.05;0.82;;;23.20;99.90;;;;;;4946661;28;20493;-70
2023/08/13 11:28:24;;;;;;;3.13;0.70;;;23.10;99.90;;;;;;4930160;29;20051;-69
2023/08/13 11:30:52;;;;;;;2.90;0.60;;;22.90;99.90;;;;;;4926005;28;20069;-69
2023/08/13 11:33:19;;;;;;;5.18;1.05;;;22.80;99.90;;;;;;4958456;28;20055;-70
2023/08/13 11:35:48;;;;;;;2.70;0.60;;;22.60;99.90;;;;;;4946356;28;20041;-69
2023/08/13 11:38:14;;;;;;;7.10;0.65;;;22.60;99.90;;;;;;4959650;28;20525;-70
2023/08/13 11:40:40;;;;;;;3.95;0.95;;;22.60;99.90;;;;;;4928402;28;20048;-69
2023/08/13 11:43:09;;;;;;;4.22;1.17;;;22.60;99.90;;;;;;4947533;28;20078;-70
2023/08/13 11:45:35;;;;;;;6.50;1.30;;;22.70;99.90;;;;;;4928774;29;20075;-69
2023/08/13 11:48:14;;;;;;;3.85;0.80;;;22.80;99.90;;;;;;4944127;28;20477;-69
2023/08/13 11:50:41;;;;;;;4.70;0.80;;;22.90;99.90;;;;;;4946881;28;20441;-69
2023/08/13 11:53:13;;;;;;;3.55;0.75;;;22.90;99.90;;;;;;4959270;28;20093;-70
2023/08/13 11:55:43;;;;;;;6.60;1.25;;;23.00;99.90;;;;;;4943175;28;20048;-70
2023/08/13 11:58:09;;;;;;;4.40;1.10;;;23.00;99.90;;;;;;4944775;28;20485;-69
2023/08/13 12:00:36;;;;;;;5.47;1.33;;;23.00;99.90;;;;;;4945294;28;20055;-69
2023/08/13 12:03:02;;;;;;;6.13;1.45;;;23.10;99.90;;;;;;4944959;28;20094;-69
2023/08/13 12:05:29;;;;;;;4.13;1.67;;;23.20;99.90;;;;;;4957532;28;20431;-69
2023/08/13 12:08:04;;;;;;;5.95;1.50;;;23.20;99.90;;;;;;4942940;28;20043;-69
2023/08/13 12:10:31;;;;;;;6.22;1.40;;;23.20;99.90;;;;;;4944976;28;20039;-69
2023/08/13 12:12:57;;;;;;;5.60;1.50;;;23.20;99.90;;;;;;4946794;28;20044;-69
2023/08/13 12:15:25;;;;;;;4.88;1.20;;;23.20;99.90;;;;;;4947287;28;20043;-69
2023/08/13 12:17:52;;;;;;;4.43;1.27;;;23.20;99.90;;;;;;4943391;28;20130;-69
2023/08/13 12:20:17;;;;;;;5.35;1.55;;;23.20;99.90;;;;;;4942388;28;21071;-69
2023/08/13 12:22:43;;;;;;;8.27;1.27;;;23.20;99.90;;;;;;4961475;28;20134;-69
2023/08/13 17:19:16;;;;;;;5.00;1.90;;;19.80;99.90;;;;;;4944585;28;21697;-71
2023/08/13 17:21:42;;;;;;;5.80;2.40;;;19.80;99.90;;;;;;4933085;28;20134;-71
2023/08/13 17:24:07;;;;;;;7.75;2.25;;;19.90;99.90;;;;;;4932348;28;20127;-71
2023/08/13 17:26:33;;;;;;;8.35;1.95;;;19.90;99.90;;;;;;4959870;28;20390;-71
2023/08/13 17:29:00;;;;;;;5.68;1.90;;;19.90;99.90;;;;;;4951205;28;20041;-71
2023/08/13 17:31:26;;;;;;;3.70;1.23;;;19.90;99.90;;;;;;4953157;28;20039;-71
2023/08/13 17:33:51;;;;;;;5.47;1.60;;;20.00;99.90;;;;;;4950334;28;20067;-71
2023/08/13 17:36:17;;;;;;;11.27;1.77;;;20.00;99.90;;;;;;4916781;28;20085;-71
2023/08/13 17:38:42;;;;;;;6.13;1.60;;;20.00;99.90;;;;;;4953877;28;20027;-71
2023/08/13 17:41:08;;;;;;;4.38;1.88;;;20.00;99.90;;;;;;4950233;28;20039;-71
2023/08/13 17:43:34;;;;;;;4.60;1.40;;;20.00;99.90;;;;;;4959376;28;20446;-71
2023/08/13 17:46:00;;;;;;;3.92;1.65;;;20.00;99.90;;;;;;4932084;29;20031;-71
2023/08/13 17:48:25;;;;;;;3.97;1.60;;;20.00;99.90;;;;;;4950142;28;20090;-71
2023/08/13 17:50:51;;;;;;;5.15;2.08;;;19.90;99.90;;;;;;4949655;28;20054;-71
2023/08/13 17:53:16;;;;;;;5.97;1.38;;;19.80;99.90;;;;;;4927930;28;20135;-71
2023/08/13 17:55:42;;;;;;;9.18;1.90;;;19.80;99.90;;;;;;4935179;29;20051;-70
2023/08/13 17:58:09;;;;;;;2.28;1.35;;;19.80;99.90;;;;;;4953056;28;20056;-71
2023/08/13 18:00:35;;;;;;;3.33;1.55;;;19.70;99.90;;;;;;4951748;28;20129;-71
2023/08/13 18:03:01;;;;;;;7.22;2.28;;;19.70;99.90;;;;;;4947174;28;20035;-71
2023/08/13 18:05:26;;;;;;;2.97;1.38;;;19.70;99.90;;;;;;4947785;28;20060;-71
2023/08/13 18:07:52;;;;;;;3.75;1.30;;;19.60;99.90;;;;;;4941680;28;20090;-71
2023/08/13 18:10:18;;;;;;;4.93;1.70;;;19.60;99.90;;;;;;4929828;28;20043;-71